Terminal Aerodrome Forecast
Issued by NWS Caribou, ME

Home | Current Version | Previous Version | Text Only | Print | Product List | Glossary On
Versions: 1 2 3 4 5 6 7 8 9 10 11 12 13 14 15 16
000
FTUS41 KCAR 280520
TAFCAR
TAF
KCAR 280520Z 2806/2906 18005KT P6SM OVC030
     FM281300 VRB03KT P6SM OVC025
     FM281500 25004KT 3SM -SHRA OVC040
     FM281900 25005KT P6SM VCSH BKN070
     FM282300 VRB03KT P6SM BKN080=

USA.gov is the U.S. government's official web portal to all federal, state and local government web resources and services.